• Join FlightAware (Why Join?)
  • Login
  • US Flag 
05:24AM EDT


 

Airport Tracker/Info


-or-


 

Live Flight TrackerFlight Track Log ✈ AAY891 ✈ 02-May-2014 ✈ KFWA - KPIE

Flight Track Log - Related Links

Times and Time Zones

All times are in EDT time to prevent confusion due to time zone crossing. See the AAY891 flight status page for this flight to view local times or setup timezone preferences in your user account.

Time Position Orientation Groundspeed Altitude Reporting Facility
EDT Latitude Longitude Course Direction KTS MPH feet Rate Location/Type
07:29PM 40.9192 -85.2219 153° Southeast 175 201 3,900  Level Chicago Center
07:30PM 40.8722 -85.1578 134° Southeast 224 258 6,000 2,160 Climbing Chicago Center
07:31PM 40.8119 -85.0958 142° Southeast 267 307 8,400 2,280 Climbing Chicago Center
07:32PM 40.7269 -85.0247 148° Southeast 295 339 10,800 1,740 Climbing Chicago Center
07:33PM 40.6489 -84.9578 147° Southeast 340 391 12,000 1,620 Climbing Chicago Center
07:34PM 40.7770 -85.1496 153° Southeast  Level Estimated
07:34PM 40.5539 -84.8722 146° Southeast 396 456 14,200  Level Chicago Center
07:35PM 40.4567 -84.7833 145° Southeast 417 480 16,300 2,100 Climbing Chicago Center
07:36PM 40.3369 -84.6767 146° Southeast 428 493 18,600 1,980 Climbing Chicago Center
07:37PM 40.2319 -84.5844 146° Southeast 445 512 20,500 1,560 Climbing Chicago Center
07:38PM 40.1300 -84.4922 145° Southeast 448 516 21,900 1,380 Climbing Chicago Center
07:39PM 40.0111 -84.4025 150° Southeast 485 558 23,400 1,620 Climbing Chicago Center
07:40PM 39.8892 -84.3828 173° South 451 519 25,300 1,740 Climbing Chicago Center
07:42PM 39.7247 -84.3597 174° South 454 522 27,500 1,680 Climbing Indianapolis Center
07:43PM 39.6022 -84.3450 175° South 451 519 29,200 1,620 Climbing Indianapolis Center
07:44PM 39.4614 -84.3281 175° South 434 499 30,900 840 Climbing Indianapolis Center
07:45PM 39.3461 -84.3133 174° South 424 488 31,000  Climbing Indianapolis Center
07:46PM 39.2322 -84.2978 174° South 417 480 31,000  Level Indianapolis Center
07:47PM 39.1206 -84.2831 174° South 411 473 31,000  Level Indianapolis Center
07:48PM 39.0103 -84.2678 174° South 406 467 31,000  Level Indianapolis Center
07:49PM 38.9017 -84.2558 175° South 396 456 31,000 60 Level Indianapolis Center
07:50PM 38.7933 -84.2428 175° South 396 456 31,200 720 Climbing Indianapolis Center
07:51PM 38.6650 -84.2244 174° South 391 450 32,500 840 Climbing Indianapolis Center
07:52PM 38.5639 -84.2136 175° South 386 444 33,000 240 Climbing Indianapolis Center
07:53PM 38.4589 -84.2006 174° South 383 441 33,000  Level Indianapolis Center
07:54PM 38.3525 -84.1861 174° South 383 441 33,000  Level Indianapolis Center
07:55PM 38.2281 -84.1731 175° South 383 441 33,000  Level Indianapolis Center
07:56PM 38.1250 -84.1592 174° South 377 434 33,000  Level Indianapolis Center
07:57PM 38.0219 -84.1472 175° South 374 430 33,000  Level Indianapolis Center
07:58PM 37.9169 -84.1356 175° South 374 430 33,000  Level Indianapolis Center
07:59PM 37.8133 -84.1219 174° South 374 430 33,000  Level Indianapolis Center
08:00PM 37.7075 -84.1081 174° South 377 434 33,000  Level Indianapolis Center
08:01PM 37.5856 -84.0942 175° South 378 435 33,000  Level Indianapolis Center
08:02PM 37.4806 -84.0819 175° South 378 435 33,000  Level Indianapolis Center
08:03PM 37.3758 -84.0692 174° South 378 435 33,000  Level Indianapolis Center
08:04PM 37.2728 -84.0572 175° South 377 434 33,000  Level Indianapolis Center
08:05PM 37.1697 -84.0447 174° South 377 434 33,000  Level Indianapolis Center
08:06PM 37.0664 -84.0317 174° South 376 433 33,000  Level Indianapolis Center
08:07PM 36.9467 -84.0183 175° South 372 428 33,000  Level Indianapolis Center
08:09PM 36.8439 -84.0056 174° South 372 428 33,000  Level Indianapolis Center
08:10PM 36.7411 -83.9947 175° South 371 427 33,000  Level Indianapolis Center
08:11PM 36.6378 -83.9819 174° South 372 428 33,000  Level Indianapolis Center
08:12PM 36.5350 -83.9697 175° South 372 428 33,000  Level Indianapolis Center
08:13PM 36.4294 -83.9758 183° South 364 419 33,000  Level Indianapolis Center
08:14PM 36.3322 -83.9942 189° South 356 410 33,000  Level Indianapolis Center
08:15PM 36.2339 -84.0119 188° South 356 410 33,000  Level Indianapolis Center
08:16PM 36.1350 -84.0278 187° South 356 410 33,000  Level Indianapolis Center
08:17PM 36.0353 -84.0450 188° South 356 410 33,000  Level Indianapolis Center
08:18PM 35.9144 -84.0642 187° South 358 412 33,000  Level Indianapolis Center
08:19PM 35.8139 -84.0825 188° South 359 413 33,000  Level Indianapolis Center
08:20PM 35.7142 -84.1000 188° South 368 423 33,000  Level Atlanta Center
08:21PM 35.6139 -84.1181 188° South 368 423 33,000  Level Atlanta Center
08:22PM 35.5242 -84.1331 188° South 368 423 33,000  Level Atlanta Center
08:23PM 35.4242 -84.1483 187° South 368 423 33,000  Level Atlanta Center
08:24PM 35.3219 -84.1636 187° South 368 423 33,000  Level Atlanta Center
08:25PM 35.2217 -84.1786 187° South 368 423 33,000  Level Atlanta Center
08:26PM 35.1214 -84.1961 188° South 368 423 33,000  Level Atlanta Center
08:27PM 35.0192 -84.2139 188° South 368 423 33,000  Level Atlanta Center
08:28PM 34.9086 -84.2261 185° South 368 423 33,000  Level Atlanta Center
08:29PM 34.8083 -84.2461 189° South 368 423 33,000  Level Atlanta Center
08:30PM 34.7061 -84.2611 187° South 368 423 33,000  Level Atlanta Center
08:31PM 34.6058 -84.2786 188° South 368 423 33,000  Level Atlanta Center
08:32PM 34.5058 -84.2933 187° South 368 423 33,000  Level Atlanta Center
08:33PM 34.4033 -84.3108 188° South 368 423 33,000  Level Atlanta Center
08:34PM 34.3031 -84.3256 187° South 368 423 33,000  Level Atlanta Center
08:35PM 34.2008 -84.3428 188° South 368 423 33,000  Level Atlanta Center
08:36PM 34.1028 -84.3600 188° South 374 430 33,000  Level Atlanta Center
08:37PM 34.0025 -84.3747 187° South 374 430 33,000  Level Atlanta Center
08:38PM 33.9022 -84.3917 188° South 374 430 33,000  Level Atlanta Center
08:39PM 33.7958 -84.4086 188° South 374 430 33,000  Level Atlanta Center
08:40PM 33.6978 -84.4233 187° South 373 429 33,000  Level Atlanta Center
08:41PM 33.5744 -84.4353 185° South 378 435 33,000  Level Atlanta Center
08:42PM 33.4681 -84.4322 179° South 385 443 33,000  Level Atlanta Center
08:43PM 33.3617 -84.4292 179° South 385 443 33,000  Level Atlanta Center
08:44PM 33.2550 -84.4289 180° South 385 443 33,000  Level Atlanta Center
08:45PM 33.1486 -84.4283 180° South 385 443 33,000  Level Atlanta Center
08:46PM 33.0528 -84.4256 179° South 385 443 33,000  Level Atlanta Center
08:47PM 32.9442 -84.4225 179° South 385 443 33,000  Level Atlanta Center
08:48PM 32.8378 -84.4194 179° South 385 443 33,000  Level Atlanta Center
08:49PM 32.7186 -84.4167 179° South 385 443 33,000  Level Atlanta Center
08:50PM 32.6122 -84.4086 176° South 385 443 33,000  Level Atlanta Center
08:51PM 32.5039 -84.3861 170° South 385 443 33,000  Level Atlanta Center
08:52PM 32.3953 -84.3661 171° South 390 449 33,000  Level Atlanta Center
08:54PM 32.1669 -84.3208 170° South 392 451 33,000  Level Jacksonville Center
08:55PM 32.0586 -84.2997 171° South 392 451 33,000  Level Jacksonville Center
08:56PM 31.9503 -84.2808 172° South 392 451 33,000  Level Jacksonville Center
08:57PM 31.8419 -84.2597 171° South 392 451 33,000  Level Jacksonville Center
08:58PM 31.7356 -84.2386 170° South 392 451 33,000  Level Jacksonville Center
08:59PM 31.6272 -84.2175 171° South 392 451 33,000  Level Jacksonville Center
09:00PM 31.5189 -84.2014 173° South 392 451 33,000  Level Jacksonville Center
09:01PM 31.4167 -84.1803 170° South 387 445 33,000  Level Jacksonville Center
09:02PM 31.3125 -84.1619 171° South 387 445 33,000  Level Jacksonville Center
09:03PM 31.2083 -84.1436 171° South 382 440 33,000  Level Jacksonville Center
09:04PM 31.1042 -84.1131 166° South 388 447 33,000  Level Jacksonville Center
09:05PM 31.0000 -84.0803 165° South 388 447 33,000  Level Jacksonville Center
09:06PM 30.8939 -84.0450 164° South 388 447 33,000  Level Jacksonville Center
09:07PM 30.7919 -84.0097 163° South 393 452 33,000  Level Jacksonville Center
09:08PM 30.6858 -83.9747 164° South 393 452 33,000  Level Jacksonville Center
09:09PM 30.5794 -83.9422 165° South 393 452 33,000 -60 Level Jacksonville Center
09:10PM 30.4672 -83.9047 164° South 388 447 32,900 -60 Descending Jacksonville Center
09:11PM 30.3608 -83.8700 164° South 388 447 32,900  Level Jacksonville Center
09:12PM 30.2506 -83.8353 165° South 401 461 32,900  Level Jacksonville Center
09:13PM 30.1400 -83.8028 166° South 401 461 32,900 -900 Level Jacksonville Center
09:14PM 30.0317 -83.7683 165° South 406 467 31,100 -2,100 Descending Jacksonville Center
09:15PM 29.9172 -83.7314 164° South 413 475 28,800 -1,860 Descending Jacksonville Center
09:16PM 29.8047 -83.6969 165° South 413 475 27,400 -960 Descending Jacksonville Center
09:17PM 29.6922 -83.6600 164° South 420 483 26,900 -300 Descending Jacksonville Center
09:18PM 29.5817 -83.6258 165° South 414 476 26,900 -180 Level Jacksonville Center
09:19PM 29.4672 -83.5892 164° South 414 476 26,600 -900 Descending Jacksonville Center
09:20PM 29.3567 -83.5550 165° South 414 476 25,200 -1,380 Descending Jacksonville Center
09:21PM 29.2483 -83.5208 165° South 409 471 23,900 -660 Descending Jacksonville Center
09:22PM 29.1483 -83.4656 154° Southeast 409 471 23,900 -540 Level Jacksonville Center
09:23PM 29.0483 -83.4008 150° Southeast 409 471 22,900 -1,500 Descending Jacksonville Center
09:24PM 28.9483 -83.3386 151° Southeast 409 471 21,000 -1,920 Descending Jacksonville Center
09:25PM 28.8547 -83.2742 149° Southeast 409 471 19,100 -1,860 Descending Jacksonville Center
09:26PM 28.7608 -83.2194 153° Southeast 396 456 17,300 -1,680 Descending Jacksonville Center
09:27PM 28.6672 -83.1622 152° Southeast 391 450 15,800 -1,440 Descending Jacksonville Center
09:29PM 28.5167 -83.0667 151° Southeast 355 409 13,400 -1,080 Descending Tampa TRACON
09:30PM 28.4333 -83.0167 152° Southeast 335 386 12,900 -1,080 Descending Tampa TRACON
09:31PM 28.3500 -82.9667 152° Southeast 330 380 11,300 -1,740 Descending Tampa TRACON
09:32PM 28.2833 -82.9000 139° Southeast 315 362 9,500 -1,860 Descending Tampa TRACON
09:33PM 28.2167 -82.8500 147° Southeast 295 339 7,600 -2,040 Descending Tampa TRACON
09:34PM 28.1667 -82.7833 130° Southeast 262 302 5,500 -2,040 Descending Tampa TRACON
09:35PM 28.1333 -82.7500 139° Southeast 245 282 4,200 -1,680 Descending Tampa TRACON
09:36PM 28.0833 -82.7167 150° Southeast 210 242 2,700 -1,200 Descending Tampa TRACON
09:37PM 28.0167 -82.7000 168° South 173 199 1,900 -840 Descending Tampa TRACON
09:38PM 27.9833 -82.7000 180° South 140 161 1,100 -780 Descending Tampa TRACON
09:39PM 27.9333 -82.7000 180° South 132 152 200 -720 Descending Tampa TRACON